sensor_id;sensor_type;location;lat;lon;timestamp;temperature;humidity
52739;DHT22;52466;40.122;18.318;2022-09-09T00:02:38;26.00;86.90
52739;DHT22;52466;40.122;18.318;2022-09-09T00:06:14;26.00;87.10
52739;DHT22;52466;40.122;18.318;2022-09-09T00:09:28;26.00;87.30
52739;DHT22;52466;40.122;18.318;2022-09-09T00:12:38;25.90;87.60
52739;DHT22;52466;40.122;18.318;2022-09-09T00:19:37;25.90;87.50
52739;DHT22;52466;40.122;18.318;2022-09-09T00:22:57;25.90;87.80
52739;DHT22;52466;40.122;18.318;2022-09-09T00:26:18;25.80;87.80
52739;DHT22;52466;40.122;18.318;2022-09-09T00:29:47;25.90;87.70
52739;DHT22;52466;40.122;18.318;2022-09-09T00:33:10;25.90;87.60
52739;DHT22;52466;40.122;18.318;2022-09-09T00:36:22;26.00;87.60
52739;DHT22;52466;40.122;18.318;2022-09-09T00:39:44;26.00;87.50
52739;DHT22;52466;40.122;18.318;2022-09-09T01:00:50;25.90;87.80
52739;DHT22;52466;40.122;18.318;2022-09-09T01:03:58;25.90;87.90
52739;DHT22;52466;40.122;18.318;2022-09-09T01:07:19;25.80;88.10
52739;DHT22;52466;40.122;18.318;2022-09-09T01:14:16;25.80;88.30
52739;DHT22;52466;40.122;18.318;2022-09-09T01:17:32;25.80;88.30
52739;DHT22;52466;40.122;18.318;2022-09-09T01:21:09;25.80;88.40
52739;DHT22;52466;40.122;18.318;2022-09-09T01:28:17;25.70;88.60
52739;DHT22;52466;40.122;18.318;2022-09-09T01:31:41;25.70;88.60
52739;DHT22;52466;40.122;18.318;2022-09-09T01:34:50;25.70;88.50
52739;DHT22;52466;40.122;18.318;2022-09-09T01:37:58;25.70;88.60
52739;DHT22;52466;40.122;18.318;2022-09-09T01:41:07;25.60;88.50
52739;DHT22;52466;40.122;18.318;2022-09-09T01:44:27;25.70;88.50
52739;DHT22;52466;40.122;18.318;2022-09-09T01:47:36;25.70;88.40
52739;DHT22;52466;40.122;18.318;2022-09-09T01:51:01;25.70;88.40
52739;DHT22;52466;40.122;18.318;2022-09-09T01:54:08;25.60;88.40
52739;DHT22;52466;40.122;18.318;2022-09-09T02:00:25;25.60;88.50
52739;DHT22;52466;40.122;18.318;2022-09-09T02:03:35;25.70;88.50
52739;DHT22;52466;40.122;18.318;2022-09-09T02:06:56;25.60;88.60
52739;DHT22;52466;40.122;18.318;2022-09-09T02:10:21;25.70;88.70
52739;DHT22;52466;40.122;18.318;2022-09-09T02:13:44;25.70;88.80
52739;DHT22;52466;40.122;18.318;2022-09-09T02:17:01;25.70;88.90
52739;DHT22;52466;40.122;18.318;2022-09-09T02:20:30;25.60;89.10
52739;DHT22;52466;40.122;18.318;2022-09-09T02:23:42;25.60;89.40
52739;DHT22;52466;40.122;18.318;2022-09-09T02:26:52;25.60;89.40
52739;DHT22;52466;40.122;18.318;2022-09-09T02:30:03;25.70;89.50
52739;DHT22;52466;40.122;18.318;2022-09-09T02:33:16;25.70;89.40
52739;DHT22;52466;40.122;18.318;2022-09-09T02:36:32;25.70;89.50
52739;DHT22;52466;40.122;18.318;2022-09-09T02:39:41;25.60;89.70
52739;DHT22;52466;40.122;18.318;2022-09-09T02:42:54;25.70;89.70
52739;DHT22;52466;40.122;18.318;2022-09-09T02:53:31;25.60;89.70
52739;DHT22;52466;40.122;18.318;2022-09-09T02:56:46;25.60;89.80
52739;DHT22;52466;40.122;18.318;2022-09-09T02:59:58;25.60;89.80
52739;DHT22;52466;40.122;18.318;2022-09-09T03:03:08;25.60;89.70
52739;DHT22;52466;40.122;18.318;2022-09-09T03:06:17;25.60;89.70
52739;DHT22;52466;40.122;18.318;2022-09-09T03:09:33;25.60;89.60
52739;DHT22;52466;40.122;18.318;2022-09-09T03:12:41;25.70;89.50
52739;DHT22;52466;40.122;18.318;2022-09-09T03:15:49;25.70;89.40
52739;DHT22;52466;40.122;18.318;2022-09-09T03:18:58;25.70;89.30
52739;DHT22;52466;40.122;18.318;2022-09-09T03:22:06;25.70;89.40
52739;DHT22;52466;40.122;18.318;2022-09-09T03:25:16;25.70;89.30
52739;DHT22;52466;40.122;18.318;2022-09-09T03:28:26;25.70;89.10
52739;DHT22;52466;40.122;18.318;2022-09-09T03:31:39;25.70;88.80
52739;DHT22;52466;40.122;18.318;2022-09-09T03:34:47;25.70;88.80
52739;DHT22;52466;40.122;18.318;2022-09-09T03:37:56;25.80;88.60
52739;DHT22;52466;40.122;18.318;2022-09-09T03:41:07;25.80;88.60
52739;DHT22;52466;40.122;18.318;2022-09-09T03:44:15;25.70;88.50
52739;DHT22;52466;40.122;18.318;2022-09-09T03:47:23;25.80;88.40
52739;DHT22;52466;40.122;18.318;2022-09-09T03:50:37;25.80;88.40
52739;DHT22;52466;40.122;18.318;2022-09-09T03:53:45;25.80;88.40
52739;DHT22;52466;40.122;18.318;2022-09-09T03:56:53;25.80;88.40
52739;DHT22;52466;40.122;18.318;2022-09-09T04:00:03;25.80;88.50
52739;DHT22;52466;40.122;18.318;2022-09-09T04:03:29;25.90;88.40
52739;DHT22;52466;40.122;18.318;2022-09-09T04:06:37;25.80;88.50
52739;DHT22;52466;40.122;18.318;2022-09-09T04:09:51;25.90;88.40
52739;DHT22;52466;40.122;18.318;2022-09-09T04:12:58;25.90;88.30
52739;DHT22;52466;40.122;18.318;2022-09-09T04:16:08;25.90;88.30
52739;DHT22;52466;40.122;18.318;2022-09-09T04:19:18;25.90;88.40
52739;DHT22;52466;40.122;18.318;2022-09-09T04:22:26;25.80;88.60
52739;DHT22;52466;40.122;18.318;2022-09-09T04:25:34;25.80;88.60
52739;DHT22;52466;40.122;18.318;2022-09-09T04:28:42;25.80;88.90
52739;DHT22;52466;40.122;18.318;2022-09-09T04:31:53;25.80;89.00
52739;DHT22;52466;40.122;18.318;2022-09-09T04:35:01;25.80;89.00
52739;DHT22;52466;40.122;18.318;2022-09-09T04:38:23;25.80;89.00
52739;DHT22;52466;40.122;18.318;2022-09-09T04:41:31;25.90;88.80
52739;DHT22;52466;40.122;18.318;2022-09-09T04:44:39;25.90;88.70
52739;DHT22;52466;40.122;18.318;2022-09-09T04:47:48;25.90;88.40
52739;DHT22;52466;40.122;18.318;2022-09-09T04:50:59;26.00;88.20
52739;DHT22;52466;40.122;18.318;2022-09-09T04:54:09;26.00;88.10
52739;DHT22;52466;40.122;18.318;2022-09-09T04:57:19;26.00;87.60
52739;DHT22;52466;40.122;18.318;2022-09-09T05:00:27;26.10;87.40
52739;DHT22;52466;40.122;18.318;2022-09-09T05:03:34;26.10;87.30
52739;DHT22;52466;40.122;18.318;2022-09-09T05:06:45;26.30;86.90
52739;DHT22;52466;40.122;18.318;2022-09-09T05:09:53;26.20;86.90
52739;DHT22;52466;40.122;18.318;2022-09-09T05:13:01;26.10;87.30
52739;DHT22;52466;40.122;18.318;2022-09-09T05:16:08;26.20;87.50
52739;DHT22;52466;40.122;18.318;2022-09-09T05:19:19;26.20;87.60
52739;DHT22;52466;40.122;18.318;2022-09-09T05:22:28;26.20;87.50
52739;DHT22;52466;40.122;18.318;2022-09-09T05:25:54;26.50;86.40
52739;DHT22;52466;40.122;18.318;2022-09-09T05:29:05;26.60;85.90
52739;DHT22;52466;40.122;18.318;2022-09-09T05:32:13;26.50;85.90
52739;DHT22;52466;40.122;18.318;2022-09-09T05:35:24;26.60;85.50
52739;DHT22;52466;40.122;18.318;2022-09-09T05:38:32;26.70;84.70
52739;DHT22;52466;40.122;18.318;2022-09-09T05:41:40;26.70;85.20
52739;DHT22;52466;40.122;18.318;2022-09-09T05:44:48;28.00;81.00
52739;DHT22;52466;40.122;18.318;2022-09-09T05:47:56;27.20;83.20
52739;DHT22;52466;40.122;18.318;2022-09-09T05:51:07;27.20;83.50
52739;DHT22;52466;40.122;18.318;2022-09-09T05:54:16;27.00;84.40
52739;DHT22;52466;40.122;18.318;2022-09-09T05:57:26;27.00;84.20
52739;DHT22;52466;40.122;18.318;2022-09-09T06:00:34;27.10;83.40
52739;DHT22;52466;40.122;18.318;2022-09-09T06:03:43;27.20;83.20
52739;DHT22;52466;40.122;18.318;2022-09-09T06:06:51;27.20;83.00
52739;DHT22;52466;40.122;18.318;2022-09-09T06:09:58;27.00;84.00
52739;DHT22;52466;40.122;18.318;2022-09-09T06:13:06;27.30;83.30
52739;DHT22;52466;40.122;18.318;2022-09-09T06:16:17;28.00;80.00
52739;DHT22;52466;40.122;18.318;2022-09-09T06:19:25;27.30;82.60
52739;DHT22;52466;40.122;18.318;2022-09-09T06:22:36;27.00;83.40
52739;DHT22;52466;40.122;18.318;2022-09-09T06:26:13;27.30;82.70
52739;DHT22;52466;40.122;18.318;2022-09-09T06:29:23;28.00;79.70
52739;DHT22;52466;40.122;18.318;2022-09-09T06:32:31;27.70;80.70
52739;DHT22;52466;40.122;18.318;2022-09-09T06:35:51;27.30;81.80
52739;DHT22;52466;40.122;18.318;2022-09-09T06:39:01;27.20;82.60
52739;DHT22;52466;40.122;18.318;2022-09-09T06:42:09;27.60;81.50
52739;DHT22;52466;40.122;18.318;2022-09-09T06:45:43;28.50;78.00
52739;DHT22;52466;40.122;18.318;2022-09-09T06:48:52;28.30;79.10
52739;DHT22;52466;40.122;18.318;2022-09-09T06:52:02;28.00;79.70
52739;DHT22;52466;40.122;18.318;2022-09-09T06:55:10;27.90;80.10
52739;DHT22;52466;40.122;18.318;2022-09-09T06:58:18;27.70;80.40
52739;DHT22;52466;40.122;18.318;2022-09-09T07:01:30;27.50;80.80
52739;DHT22;52466;40.122;18.318;2022-09-09T07:04:41;28.30;78.50
52739;DHT22;52466;40.122;18.318;2022-09-09T07:07:51;27.90;79.70
52739;DHT22;52466;40.122;18.318;2022-09-09T07:11:04;28.00;79.80
52739;DHT22;52466;40.122;18.318;2022-09-09T07:14:16;28.20;78.70
52739;DHT22;52466;40.122;18.318;2022-09-09T07:17:29;28.50;78.00
52739;DHT22;52466;40.122;18.318;2022-09-09T07:20:37;28.70;76.50
52739;DHT22;52466;40.122;18.318;2022-09-09T07:23:45;30.00;72.50
52739;DHT22;52466;40.122;18.318;2022-09-09T07:26:53;30.10;70.80
52739;DHT22;52466;40.122;18.318;2022-09-09T07:30:02;28.90;74.40
52739;DHT22;52466;40.122;18.318;2022-09-09T07:33:10;28.50;76.50
52739;DHT22;52466;40.122;18.318;2022-09-09T07:36:23;28.40;76.80
52739;DHT22;52466;40.122;18.318;2022-09-09T07:39:32;29.00;74.80
52739;DHT22;52466;40.122;18.318;2022-09-09T07:42:40;29.30;73.90
52739;DHT22;52466;40.122;18.318;2022-09-09T07:45:47;29.70;72.80
52739;DHT22;52466;40.122;18.318;2022-09-09T07:48:57;30.00;71.00
52739;DHT22;52466;40.122;18.318;2022-09-09T07:52:08;29.50;72.40
52739;DHT22;52466;40.122;18.318;2022-09-09T07:55:21;29.20;73.30
52739;DHT22;52466;40.122;18.318;2022-09-09T07:58:33;29.10;73.70
52739;DHT22;52466;40.122;18.318;2022-09-09T08:01:44;29.40;73.00
52739;DHT22;52466;40.122;18.318;2022-09-09T08:04:55;29.50;73.20
52739;DHT22;52466;40.122;18.318;2022-09-09T08:08:04;29.50;73.00
52739;DHT22;52466;40.122;18.318;2022-09-09T08:11:14;29.30;73.40
52739;DHT22;52466;40.122;18.318;2022-09-09T08:14:22;28.90;75.00
52739;DHT22;52466;40.122;18.318;2022-09-09T08:17:31;29.40;74.10
52739;DHT22;52466;40.122;18.318;2022-09-09T08:20:41;29.40;73.50
52739;DHT22;52466;40.122;18.318;2022-09-09T08:23:51;29.10;74.40
52739;DHT22;52466;40.122;18.318;2022-09-09T08:27:00;29.30;73.50
52739;DHT22;52466;40.122;18.318;2022-09-09T08:30:09;29.40;73.70
52739;DHT22;52466;40.122;18.318;2022-09-09T08:38:02;29.90;70.70
52739;DHT22;52466;40.122;18.318;2022-09-09T08:49:24;29.90;71.20
52739;DHT22;52466;40.122;18.318;2022-09-09T08:51:58;30.10;71.10
52739;DHT22;52466;40.122;18.318;2022-09-09T08:58:35;30.20;70.70
52739;DHT22;52466;40.122;18.318;2022-09-09T09:02:00;29.80;71.50
52739;DHT22;52466;40.122;18.318;2022-09-09T09:05:36;29.80;71.40
52739;DHT22;52466;40.122;18.318;2022-09-09T09:08:48;29.60;71.70
52739;DHT22;52466;40.122;18.318;2022-09-09T09:12:02;29.70;71.80
52739;DHT22;52466;40.122;18.318;2022-09-09T09:15:20;30.20;69.20
52739;DHT22;52466;40.122;18.318;2022-09-09T09:18:31;30.40;68.40
52739;DHT22;52466;40.122;18.318;2022-09-09T09:21:44;30.40;69.20
52739;DHT22;52466;40.122;18.318;2022-09-09T09:25:40;30.50;69.00
52739;DHT22;52466;40.122;18.318;2022-09-09T09:28:26;30.50;69.60
52739;DHT22;52466;40.122;18.318;2022-09-09T09:31:56;30.60;68.90
52739;DHT22;52466;40.122;18.318;2022-09-09T09:35:12;30.80;67.70
52739;DHT22;52466;40.122;18.318;2022-09-09T09:38:25;30.80;68.30
52739;DHT22;52466;40.122;18.318;2022-09-09T09:41:42;30.90;67.50
52739;DHT22;52466;40.122;18.318;2022-09-09T09:44:51;31.00;66.30
52739;DHT22;52466;40.122;18.318;2022-09-09T09:48:05;30.80;66.50
52739;DHT22;52466;40.122;18.318;2022-09-09T09:51:17;31.10;64.90
52739;DHT22;52466;40.122;18.318;2022-09-09T09:54:30;30.70;67.30
52739;DHT22;52466;40.122;18.318;2022-09-09T09:57:39;31.00;67.30
52739;DHT22;52466;40.122;18.318;2022-09-09T10:00:49;30.80;66.90
52739;DHT22;52466;40.122;18.318;2022-09-09T10:04:14;31.30;65.30
52739;DHT22;52466;40.122;18.318;2022-09-09T10:07:26;31.00;66.90
52739;DHT22;52466;40.122;18.318;2022-09-09T10:14:14;30.50;67.50
52739;DHT22;52466;40.122;18.318;2022-09-09T10:27:36;30.70;66.50
52739;DHT22;52466;40.122;18.318;2022-09-09T10:34:24;30.80;66.20
52739;DHT22;52466;40.122;18.318;2022-09-09T10:41:15;31.30;63.30
52739;DHT22;52466;40.122;18.318;2022-09-09T10:48:07;30.80;69.80
52739;DHT22;52466;40.122;18.318;2022-09-09T10:55:18;30.00;73.40
52739;DHT22;52466;40.122;18.318;2022-09-09T10:58:52;30.50;70.50
52739;DHT22;52466;40.122;18.318;2022-09-09T11:02:31;30.30;72.40
52739;DHT22;52466;40.122;18.318;2022-09-09T11:05:45;30.30;72.20
52739;DHT22;52466;40.122;18.318;2022-09-09T11:08:56;30.50;71.90
52739;DHT22;52466;40.122;18.318;2022-09-09T11:12:10;30.20;73.20
52739;DHT22;52466;40.122;18.318;2022-09-09T11:15:28;30.00;74.00
52739;DHT22;52466;40.122;18.318;2022-09-09T11:18:40;30.80;71.80
52739;DHT22;52466;40.122;18.318;2022-09-09T11:21:50;30.50;71.90
52739;DHT22;52466;40.122;18.318;2022-09-09T11:25:24;30.00;73.60
52739;DHT22;52466;40.122;18.318;2022-09-09T11:29:01;30.50;72.60
52739;DHT22;52466;40.122;18.318;2022-09-09T11:35:53;30.40;71.90
52739;DHT22;52466;40.122;18.318;2022-09-09T11:40:15;30.60;71.40
52739;DHT22;52466;40.122;18.318;2022-09-09T11:46:38;30.10;74.00
52739;DHT22;52466;40.122;18.318;2022-09-09T11:49:46;30.60;70.20
52739;DHT22;52466;40.122;18.318;2022-09-09T12:03:51;31.50;65.10
52739;DHT22;52466;40.122;18.318;2022-09-09T12:07:24;30.50;65.60
52739;DHT22;52466;40.122;18.318;2022-09-09T12:10:30;30.90;65.30
52739;DHT22;52466;40.122;18.318;2022-09-09T12:13:39;30.80;65.20
52739;DHT22;52466;40.122;18.318;2022-09-09T12:16:49;30.50;65.80
52739;DHT22;52466;40.122;18.318;2022-09-09T12:20:26;30.60;67.00
52739;DHT22;52466;40.122;18.318;2022-09-09T12:27:44;30.80;66.10
52739;DHT22;52466;40.122;18.318;2022-09-09T12:38:01;30.60;67.30
52739;DHT22;52466;40.122;18.318;2022-09-09T12:41:32;31.20;65.20
52739;DHT22;52466;40.122;18.318;2022-09-09T12:45:01;31.50;63.40
52739;DHT22;52466;40.122;18.318;2022-09-09T12:48:11;31.50;63.60
52739;DHT22;52466;40.122;18.318;2022-09-09T12:51:29;31.20;65.10
52739;DHT22;52466;40.122;18.318;2022-09-09T12:54:37;31.20;64.50
52739;DHT22;52466;40.122;18.318;2022-09-09T12:57:50;30.50;66.80
52739;DHT22;52466;40.122;18.318;2022-09-09T13:00:59;30.70;66.10
52739;DHT22;52466;40.122;18.318;2022-09-09T13:04:20;30.70;65.00
52739;DHT22;52466;40.122;18.318;2022-09-09T13:07:36;31.00;64.40
52739;DHT22;52466;40.122;18.318;2022-09-09T13:10:54;30.90;65.60
52739;DHT22;52466;40.122;18.318;2022-09-09T13:14:04;30.60;65.60
52739;DHT22;52466;40.122;18.318;2022-09-09T13:17:24;30.80;65.10
52739;DHT22;52466;40.122;18.318;2022-09-09T13:20:32;30.90;64.40
52739;DHT22;52466;40.122;18.318;2022-09-09T13:23:39;30.90;63.70
52739;DHT22;52466;40.122;18.318;2022-09-09T13:27:04;31.10;64.20
52739;DHT22;52466;40.122;18.318;2022-09-09T13:33:38;30.90;65.60
52739;DHT22;52466;40.122;18.318;2022-09-09T13:36:48;30.80;65.90
52739;DHT22;52466;40.122;18.318;2022-09-09T13:39:56;30.70;65.90
52739;DHT22;52466;40.122;18.318;2022-09-09T13:43:38;30.40;66.80
52739;DHT22;52466;40.122;18.318;2022-09-09T13:47:04;30.20;68.30
52739;DHT22;52466;40.122;18.318;2022-09-09T13:50:26;30.60;67.10
52739;DHT22;52466;40.122;18.318;2022-09-09T13:53:34;30.60;67.40
52739;DHT22;52466;40.122;18.318;2022-09-09T13:56:44;30.20;67.50
52739;DHT22;52466;40.122;18.318;2022-09-09T13:59:53;30.40;67.30
52739;DHT22;52466;40.122;18.318;2022-09-09T14:03:05;30.50;66.00
52739;DHT22;52466;40.122;18.318;2022-09-09T14:06:20;30.50;66.40
52739;DHT22;52466;40.122;18.318;2022-09-09T14:09:33;30.50;66.20
52739;DHT22;52466;40.122;18.318;2022-09-09T14:12:41;30.40;66.70
52739;DHT22;52466;40.122;18.318;2022-09-09T14:16:05;30.40;67.00
52739;DHT22;52466;40.122;18.318;2022-09-09T14:19:47;30.60;66.20
52739;DHT22;52466;40.122;18.318;2022-09-09T14:22:58;30.50;66.40
52739;DHT22;52466;40.122;18.318;2022-09-09T14:26:28;30.50;68.90
52739;DHT22;52466;40.122;18.318;2022-09-09T14:29:37;30.20;70.60
52739;DHT22;52466;40.122;18.318;2022-09-09T14:32:44;30.00;73.00
52739;DHT22;52466;40.122;18.318;2022-09-09T14:35:57;29.60;74.00
52739;DHT22;52466;40.122;18.318;2022-09-09T14:39:04;29.90;74.20
52739;DHT22;52466;40.122;18.318;2022-09-09T14:42:15;29.70;74.70
52739;DHT22;52466;40.122;18.318;2022-09-09T14:45:23;29.50;76.50
52739;DHT22;52466;40.122;18.318;2022-09-09T14:48:32;29.70;76.10
52739;DHT22;52466;40.122;18.318;2022-09-09T14:51:40;29.40;77.20
52739;DHT22;52466;40.122;18.318;2022-09-09T14:54:48;29.30;77.50
52739;DHT22;52466;40.122;18.318;2022-09-09T14:57:56;29.00;78.80
52739;DHT22;52466;40.122;18.318;2022-09-09T15:01:05;29.00;78.80
52739;DHT22;52466;40.122;18.318;2022-09-09T15:04:13;28.70;80.50
52739;DHT22;52466;40.122;18.318;2022-09-09T15:07:22;29.10;78.90
52739;DHT22;52466;40.122;18.318;2022-09-09T15:10:29;29.50;78.00
52739;DHT22;52466;40.122;18.318;2022-09-09T15:13:41;29.10;78.80
52739;DHT22;52466;40.122;18.318;2022-09-09T15:16:49;28.90;79.50
52739;DHT22;52466;40.122;18.318;2022-09-09T15:19:57;29.20;78.70
52739;DHT22;52466;40.122;18.318;2022-09-09T15:23:05;29.00;79.20
52739;DHT22;52466;40.122;18.318;2022-09-09T15:26:13;28.70;80.00
52739;DHT22;52466;40.122;18.318;2022-09-09T15:29:24;28.90;79.50
52739;DHT22;52466;40.122;18.318;2022-09-09T15:32:32;28.80;79.80
52739;DHT22;52466;40.122;18.318;2022-09-09T15:35:41;28.80;79.70
52739;DHT22;52466;40.122;18.318;2022-09-09T15:38:49;28.50;80.60
52739;DHT22;52466;40.122;18.318;2022-09-09T15:41:57;28.50;81.30
52739;DHT22;52466;40.122;18.318;2022-09-09T15:45:05;28.60;80.50
52739;DHT22;52466;40.122;18.318;2022-09-09T15:48:13;28.50;80.90
52739;DHT22;52466;40.122;18.318;2022-09-09T15:51:22;28.50;81.00
52739;DHT22;52466;40.122;18.318;2022-09-09T15:54:35;28.30;81.10
52739;DHT22;52466;40.122;18.318;2022-09-09T15:57:44;28.60;80.50
52739;DHT22;52466;40.122;18.318;2022-09-09T16:00:51;28.50;81.20
52739;DHT22;52466;40.122;18.318;2022-09-09T16:03:59;28.30;81.50
52739;DHT22;52466;40.122;18.318;2022-09-09T16:07:07;28.30;81.60
52739;DHT22;52466;40.122;18.318;2022-09-09T16:10:15;28.00;82.80
52739;DHT22;52466;40.122;18.318;2022-09-09T16:13:22;28.00;83.50
52739;DHT22;52466;40.122;18.318;2022-09-09T16:16:30;28.00;83.40
52739;DHT22;52466;40.122;18.318;2022-09-09T16:19:38;28.00;83.30
52739;DHT22;52466;40.122;18.318;2022-09-09T16:22:45;28.00;83.80
52739;DHT22;52466;40.122;18.318;2022-09-09T16:25:54;27.80;83.90
52739;DHT22;52466;40.122;18.318;2022-09-09T16:29:03;27.80;84.10
52739;DHT22;52466;40.122;18.318;2022-09-09T16:32:10;27.80;84.20
52739;DHT22;52466;40.122;18.318;2022-09-09T16:35:19;27.50;85.10
52739;DHT22;52466;40.122;18.318;2022-09-09T16:38:28;27.50;85.30
52739;DHT22;52466;40.122;18.318;2022-09-09T16:41:36;27.50;85.30
52739;DHT22;52466;40.122;18.318;2022-09-09T16:44:49;27.50;85.30
52739;DHT22;52466;40.122;18.318;2022-09-09T16:47:57;27.30;85.90
52739;DHT22;52466;40.122;18.318;2022-09-09T16:51:07;27.30;86.00
52739;DHT22;52466;40.122;18.318;2022-09-09T16:54:16;27.20;86.10
52739;DHT22;52466;40.122;18.318;2022-09-09T16:57:24;27.20;86.20
52739;DHT22;52466;40.122;18.318;2022-09-09T17:00:32;27.00;86.70
52739;DHT22;52466;40.122;18.318;2022-09-09T17:03:40;27.10;86.60
52739;DHT22;52466;40.122;18.318;2022-09-09T17:06:49;27.00;86.60
52739;DHT22;52466;40.122;18.318;2022-09-09T17:09:57;27.00;86.60
52739;DHT22;52466;40.122;18.318;2022-09-09T17:13:04;27.00;86.50
52739;DHT22;52466;40.122;18.318;2022-09-09T17:16:14;27.00;86.40
52739;DHT22;52466;40.122;18.318;2022-09-09T17:19:22;26.80;86.80
52739;DHT22;52466;40.122;18.318;2022-09-09T17:22:30;26.80;86.30
52739;DHT22;52466;40.122;18.318;2022-09-09T17:25:37;26.90;86.30
52739;DHT22;52466;40.122;18.318;2022-09-09T17:28:46;26.80;86.60
52739;DHT22;52466;40.122;18.318;2022-09-09T17:31:56;26.80;86.70
52739;DHT22;52466;40.122;18.318;2022-09-09T17:35:04;26.60;87.40
52739;DHT22;52466;40.122;18.318;2022-09-09T17:38:13;26.70;87.40
52739;DHT22;52466;40.122;18.318;2022-09-09T17:41:43;26.70;87.30
52739;DHT22;52466;40.122;18.318;2022-09-09T17:44:51;26.60;87.70
52739;DHT22;52466;40.122;18.318;2022-09-09T17:47:58;26.60;87.90
52739;DHT22;52466;40.122;18.318;2022-09-09T17:51:08;26.60;87.80
52739;DHT22;52466;40.122;18.318;2022-09-09T17:54:18;26.60;87.70
52739;DHT22;52466;40.122;18.318;2022-09-09T17:57:52;26.60;87.70
52739;DHT22;52466;40.122;18.318;2022-09-09T18:01:12;26.50;88.00
52739;DHT22;52466;40.122;18.318;2022-09-09T18:04:20;26.60;87.80
52739;DHT22;52466;40.122;18.318;2022-09-09T18:07:28;26.60;87.80
52739;DHT22;52466;40.122;18.318;2022-09-09T18:10:36;26.50;88.40
52739;DHT22;52466;40.122;18.318;2022-09-09T18:13:48;26.50;88.50
52739;DHT22;52466;40.122;18.318;2022-09-09T18:17:00;26.50;88.70
52739;DHT22;52466;40.122;18.318;2022-09-09T18:20:08;26.50;88.70
52739;DHT22;52466;40.122;18.318;2022-09-09T18:23:17;26.50;89.10
52739;DHT22;52466;40.122;18.318;2022-09-09T18:26:25;26.50;88.80
52739;DHT22;52466;40.122;18.318;2022-09-09T18:29:33;26.50;88.80
52739;DHT22;52466;40.122;18.318;2022-09-09T18:32:41;26.50;88.50
52739;DHT22;52466;40.122;18.318;2022-09-09T18:35:49;26.50;88.60
52739;DHT22;52466;40.122;18.318;2022-09-09T18:38:57;26.50;88.40
52739;DHT22;52466;40.122;18.318;2022-09-09T18:42:06;26.50;88.50
52739;DHT22;52466;40.122;18.318;2022-09-09T18:45:14;26.50;88.60
52739;DHT22;52466;40.122;18.318;2022-09-09T18:48:22;26.50;88.80
52739;DHT22;52466;40.122;18.318;2022-09-09T18:51:30;26.50;88.40
52739;DHT22;52466;40.122;18.318;2022-09-09T18:54:37;26.50;88.10
52739;DHT22;52466;40.122;18.318;2022-09-09T18:57:45;26.50;88.40
52739;DHT22;52466;40.122;18.318;2022-09-09T19:00:55;26.50;88.80
52739;DHT22;52466;40.122;18.318;2022-09-09T19:04:04;26.50;89.10
52739;DHT22;52466;40.122;18.318;2022-09-09T19:07:12;26.40;89.30
52739;DHT22;52466;40.122;18.318;2022-09-09T19:10:20;26.30;89.70
52739;DHT22;52466;40.122;18.318;2022-09-09T19:13:28;26.30;90.20
52739;DHT22;52466;40.122;18.318;2022-09-09T19:16:37;26.30;90.20
52739;DHT22;52466;40.122;18.318;2022-09-09T19:19:48;26.40;90.10
52739;DHT22;52466;40.122;18.318;2022-09-09T19:22:58;26.30;90.50
52739;DHT22;52466;40.122;18.318;2022-09-09T19:26:07;26.40;90.60
52739;DHT22;52466;40.122;18.318;2022-09-09T19:29:17;26.40;90.50
52739;DHT22;52466;40.122;18.318;2022-09-09T19:32:25;26.40;90.30
52739;DHT22;52466;40.122;18.318;2022-09-09T19:35:33;26.40;90.50
52739;DHT22;52466;40.122;18.318;2022-09-09T19:38:41;26.30;90.70
52739;DHT22;52466;40.122;18.318;2022-09-09T19:41:49;26.30;90.70
52739;DHT22;52466;40.122;18.318;2022-09-09T19:44:56;26.30;90.70
52739;DHT22;52466;40.122;18.318;2022-09-09T19:48:04;26.40;90.60
52739;DHT22;52466;40.122;18.318;2022-09-09T19:51:18;26.50;90.20
52739;DHT22;52466;40.122;18.318;2022-09-09T19:54:27;26.40;90.10
52739;DHT22;52466;40.122;18.318;2022-09-09T19:57:57;26.50;90.20
52739;DHT22;52466;40.122;18.318;2022-09-09T20:04:19;26.10;91.10
52739;DHT22;52466;40.122;18.318;2022-09-09T20:07:27;26.20;91.10
52739;DHT22;52466;40.122;18.318;2022-09-09T20:10:35;26.20;91.50
52739;DHT22;52466;40.122;18.318;2022-09-09T20:13:43;26.10;91.80
52739;DHT22;52466;40.122;18.318;2022-09-09T20:16:51;26.10;91.90
52739;DHT22;52466;40.122;18.318;2022-09-09T20:19:58;26.10;91.50
52739;DHT22;52466;40.122;18.318;2022-09-09T20:23:06;26.20;91.50
52739;DHT22;52466;40.122;18.318;2022-09-09T20:26:20;26.10;91.50
52739;DHT22;52466;40.122;18.318;2022-09-09T20:29:28;26.20;91.30
52739;DHT22;52466;40.122;18.318;2022-09-09T20:32:35;26.10;91.50
52739;DHT22;52466;40.122;18.318;2022-09-09T20:35:44;26.00;92.20
52739;DHT22;52466;40.122;18.318;2022-09-09T20:38:54;26.00;92.10
52739;DHT22;52466;40.122;18.318;2022-09-09T20:42:02;26.00;92.00
52739;DHT22;52466;40.122;18.318;2022-09-09T20:45:10;26.00;92.20
52739;DHT22;52466;40.122;18.318;2022-09-09T20:48:23;26.10;92.10
52739;DHT22;52466;40.122;18.318;2022-09-09T20:51:32;26.10;92.10
52739;DHT22;52466;40.122;18.318;2022-09-09T20:54:40;26.00;92.10
52739;DHT22;52466;40.122;18.318;2022-09-09T20:57:48;26.10;92.10
52739;DHT22;52466;40.122;18.318;2022-09-09T21:00:58;26.20;92.00
52739;DHT22;52466;40.122;18.318;2022-09-09T21:04:07;26.20;92.00
52739;DHT22;52466;40.122;18.318;2022-09-09T21:07:16;26.20;92.00
52739;DHT22;52466;40.122;18.318;2022-09-09T21:10:23;26.20;91.90
52739;DHT22;52466;40.122;18.318;2022-09-09T21:13:35;26.20;91.80
52739;DHT22;52466;40.122;18.318;2022-09-09T21:16:43;26.20;91.90
52739;DHT22;52466;40.122;18.318;2022-09-09T21:19:51;26.20;91.50
52739;DHT22;52466;40.122;18.318;2022-09-09T21:22:58;26.10;91.90
52739;DHT22;52466;40.122;18.318;2022-09-09T21:26:07;26.10;92.10
52739;DHT22;52466;40.122;18.318;2022-09-09T21:29:16;26.10;92.10
52739;DHT22;52466;40.122;18.318;2022-09-09T21:32:23;26.10;92.10
52739;DHT22;52466;40.122;18.318;2022-09-09T21:35:34;26.00;92.30
52739;DHT22;52466;40.122;18.318;2022-09-09T21:38:42;26.00;92.40
52739;DHT22;52466;40.122;18.318;2022-09-09T21:41:50;25.90;92.70
52739;DHT22;52466;40.122;18.318;2022-09-09T21:44:58;26.00;92.40
52739;DHT22;52466;40.122;18.318;2022-09-09T21:48:07;26.00;92.20
52739;DHT22;52466;40.122;18.318;2022-09-09T21:51:16;26.10;92.20
52739;DHT22;52466;40.122;18.318;2022-09-09T21:54:24;26.00;92.10